createdAt,value
2023-05-18T00:00:45.023Z,85.60
2023-05-18T00:03:13.500Z,85.60
2023-05-18T00:05:43.849Z,85.60
2023-05-18T00:08:12.742Z,85.60
2023-05-18T00:10:41.327Z,85.60
2023-05-18T00:13:09.791Z,85.60
2023-05-18T00:15:38.133Z,85.50
2023-05-18T00:18:07.089Z,85.60
2023-05-18T00:20:36.683Z,85.60
2023-05-18T00:23:10.600Z,85.60
2023-05-18T00:25:38.926Z,85.50
2023-05-18T00:28:07.300Z,85.60
2023-05-18T00:30:35.646Z,85.60
2023-05-18T00:33:04.162Z,85.60
2023-05-18T00:35:32.630Z,85.60
2023-05-18T00:38:01.084Z,85.60
2023-05-18T00:40:30.923Z,85.60
2023-05-18T00:43:00.753Z,85.50
2023-05-18T00:45:29.524Z,85.60
2023-05-18T00:47:58.190Z,85.50
2023-05-18T00:50:26.821Z,85.60
2023-05-18T00:52:55.243Z,85.50
2023-05-18T00:55:23.685Z,85.50
2023-05-18T00:57:56.569Z,85.60
2023-05-18T01:00:25.313Z,85.60
2023-05-18T01:02:53.727Z,85.60
2023-05-18T01:05:22.261Z,85.60
2023-05-18T01:07:51.543Z,85.50
2023-05-18T01:10:21.452Z,86.40
2023-05-18T01:12:55.031Z,85.60
2023-05-18T01:15:28.284Z,85.60
2023-05-18T01:18:06.274Z,85.60
2023-05-18T01:20:45.819Z,85.60
2023-05-18T01:23:41.590Z,85.60
2023-05-18T01:26:15.808Z,85.50
2023-05-18T01:28:47.464Z,85.50
2023-05-18T01:31:16.348Z,85.50
2023-05-18T01:33:45.067Z,85.50
2023-05-18T01:36:13.549Z,85.50
2023-05-18T01:38:44.185Z,85.50
2023-05-18T01:41:21.402Z,85.50
2023-05-18T01:43:57.012Z,85.50
2023-05-18T01:46:36.463Z,85.40
2023-05-18T01:49:12.475Z,85.50
2023-05-18T01:51:46.612Z,85.50
2023-05-18T01:54:18.665Z,85.50
2023-05-18T01:56:50.041Z,85.40
2023-05-18T01:59:19.124Z,85.40
2023-05-18T02:01:47.516Z,85.40
2023-05-18T02:04:17.477Z,85.40
2023-05-18T02:06:45.990Z,86.30
2023-05-18T02:09:14.276Z,85.40
2023-05-18T02:11:42.664Z,85.40
2023-05-18T02:14:12.348Z,85.70
2023-05-18T02:16:40.807Z,85.40
2023-05-18T02:19:09.216Z,85.40
2023-05-18T02:21:37.771Z,85.50
2023-05-18T02:24:07.004Z,85.40
2023-05-18T02:26:37.761Z,85.40
2023-05-18T02:29:09.410Z,85.40
2023-05-18T02:31:39.641Z,85.50
2023-05-18T02:34:09.153Z,85.40
2023-05-18T02:36:40.398Z,85.40
2023-05-18T02:39:08.941Z,85.30
2023-05-18T02:41:38.160Z,85.30
2023-05-18T02:44:07.218Z,85.40
2023-05-18T02:46:35.727Z,85.40
2023-05-18T02:49:05.765Z,86.20
2023-05-18T02:51:34.158Z,85.40
2023-05-18T02:54:03.613Z,85.40
2023-05-18T02:56:34.079Z,85.40
2023-05-18T02:59:09.848Z,85.30
2023-05-18T03:01:41.303Z,85.40
2023-05-18T03:04:11.727Z,85.30
2023-05-18T03:06:47.345Z,85.30
2023-05-18T03:09:16.895Z,85.30
2023-05-18T03:11:46.754Z,85.30
2023-05-18T03:14:16.088Z,85.40
2023-05-18T03:16:45.333Z,85.30
2023-05-18T03:19:17.850Z,85.30
2023-05-18T03:21:49.620Z,85.30
2023-05-18T03:24:18.629Z,85.30
2023-05-18T03:26:49.835Z,85.30
2023-05-18T03:29:18.315Z,86.10
2023-05-18T03:31:46.747Z,85.30
2023-05-18T03:34:17.153Z,85.30
2023-05-18T03:36:47.347Z,85.30
2023-05-18T03:39:16.196Z,85.30
2023-05-18T03:41:44.629Z,85.30
2023-05-18T03:44:13.044Z,85.20
2023-05-18T03:46:41.935Z,85.20
2023-05-18T03:49:10.989Z,86.00
2023-05-18T03:51:44.615Z,86.00
2023-05-18T03:54:13.108Z,85.20
2023-05-18T03:56:42.225Z,85.20
2023-05-18T03:59:10.561Z,85.20
2023-05-18T04:01:42.247Z,85.20
2023-05-18T04:04:18.392Z,85.20
2023-05-18T04:06:49.370Z,85.10
2023-05-18T04:09:18.412Z,85.10
2023-05-18T04:11:47.055Z,85.10
2023-05-18T04:14:17.121Z,85.00
2023-05-18T04:16:47.080Z,85.10
2023-05-18T04:19:16.139Z,85.00
2023-05-18T04:21:47.442Z,85.10
2023-05-18T04:24:21.422Z,85.10
2023-05-18T04:26:49.997Z,85.00
2023-05-18T04:29:18.697Z,84.90
2023-05-18T04:31:48.860Z,85.00
2023-05-18T04:34:19.208Z,85.80
2023-05-18T04:36:48.529Z,85.00
2023-05-18T04:39:18.199Z,84.90
2023-05-18T04:41:48.356Z,84.80
2023-05-18T04:44:18.336Z,84.80
2023-05-18T04:46:47.525Z,84.60
2023-05-18T04:49:16.478Z,84.70
2023-05-18T04:51:47.058Z,84.50
2023-05-18T04:54:16.218Z,84.40
2023-05-18T04:56:47.331Z,84.30
2023-05-18T04:59:17.145Z,84.10
2023-05-18T05:01:46.278Z,84.00
2023-05-18T05:04:15.394Z,84.00
2023-05-18T05:06:43.769Z,83.80
2023-05-18T05:09:14.182Z,83.80
2023-05-18T05:11:42.908Z,83.60
2023-05-18T05:14:11.545Z,83.40
2023-05-18T05:16:41.250Z,83.20
2023-05-18T05:19:09.651Z,82.90
2023-05-18T05:21:38.134Z,82.60
2023-05-18T05:24:08.496Z,82.40
2023-05-18T05:26:37.806Z,82.10
2023-05-18T05:29:06.219Z,81.90
2023-05-18T05:31:34.763Z,82.40
2023-05-18T05:34:04.699Z,81.20
2023-05-18T05:36:33.843Z,80.90
2023-05-18T05:39:02.588Z,80.60
2023-05-18T05:41:32.471Z,80.50
2023-05-18T05:44:02.140Z,80.30
2023-05-18T05:46:30.607Z,80.00
2023-05-18T05:49:02.134Z,80.00
2023-05-18T05:51:32.081Z,80.10
2023-05-18T05:54:00.783Z,80.10
2023-05-18T05:56:29.267Z,80.10
2023-05-18T05:58:57.900Z,80.10
2023-05-18T06:01:27.575Z,80.10
2023-05-18T06:03:56.259Z,80.10
2023-05-18T06:06:24.978Z,80.00
2023-05-18T06:08:55.370Z,80.10
2023-05-18T06:11:23.966Z,80.00
2023-05-18T06:13:53.447Z,80.00
2023-05-18T06:16:21.850Z,80.00
2023-05-18T06:18:50.373Z,80.10
2023-05-18T06:21:18.869Z,80.10
2023-05-18T06:23:47.644Z,80.40
2023-05-18T06:26:43.181Z,80.50
2023-05-18T06:29:49.913Z,80.80
2023-05-18T06:32:37.537Z,80.90
2023-05-18T06:35:07.382Z,81.00
2023-05-18T06:37:35.958Z,81.00
2023-05-18T06:40:06.164Z,81.10
2023-05-18T06:42:36.482Z,81.10
2023-05-18T06:45:24.804Z,81.30
2023-05-18T06:47:56.620Z,81.10
2023-05-18T06:50:25.188Z,81.10
2023-05-18T06:52:53.799Z,81.20
2023-05-18T06:55:22.274Z,81.20
2023-05-18T06:57:52.971Z,81.20
2023-05-18T07:00:22.581Z,81.20
2023-05-18T07:02:51.675Z,81.10
2023-05-18T07:05:20.133Z,81.20
2023-05-18T07:07:49.219Z,81.20
2023-05-18T07:10:17.668Z,81.20
2023-05-18T07:12:46.069Z,81.20
2023-05-18T07:15:15.965Z,81.20
2023-05-18T07:17:44.910Z,81.20
2023-05-18T07:20:13.528Z,82.10
2023-05-18T07:22:42.359Z,81.30
2023-05-18T07:25:11.244Z,81.30
2023-05-18T07:27:39.604Z,81.30
2023-05-18T07:30:09.391Z,81.30
2023-05-18T07:32:39.077Z,81.30
2023-05-18T07:35:08.241Z,81.30
2023-05-18T07:37:36.814Z,81.30
2023-05-18T07:40:06.107Z,81.30
2023-05-18T07:42:34.720Z,81.30
2023-05-18T07:45:03.092Z,81.30
2023-05-18T07:47:31.624Z,81.40
2023-05-18T07:50:01.517Z,81.40
2023-05-18T07:52:29.877Z,81.40
2023-05-18T07:54:58.417Z,81.40
2023-05-18T07:57:27.105Z,81.30
2023-05-18T07:59:55.511Z,81.30
2023-05-18T08:02:24.029Z,81.30
2023-05-18T08:04:53.473Z,81.30
2023-05-18T08:07:26.457Z,81.20
2023-05-18T08:09:54.822Z,81.20
2023-05-18T08:12:23.244Z,81.30
2023-05-18T08:14:51.773Z,81.20
2023-05-18T08:17:21.158Z,81.20
2023-05-18T08:19:49.686Z,81.10
2023-05-18T08:22:18.064Z,81.20
2023-05-18T08:24:47.951Z,81.10
2023-05-18T08:27:17.575Z,81.10
2023-05-18T08:29:45.884Z,81.20
2023-05-18T08:32:14.436Z,81.20
2023-05-18T08:34:42.954Z,81.20
2023-05-18T08:37:13.683Z,81.20
2023-05-18T08:39:42.089Z,81.10
2023-05-18T08:42:20.195Z,81.10
2023-05-18T08:44:52.650Z,81.20
2023-05-18T08:47:26.176Z,81.10
2023-05-18T08:49:57.841Z,81.10
2023-05-18T08:52:28.097Z,81.10
2023-05-18T08:55:00.035Z,81.20
2023-05-18T08:57:31.403Z,81.30
2023-05-18T09:00:01.851Z,82.00
2023-05-18T09:02:32.376Z,81.20
2023-05-18T09:05:01.019Z,81.20
2023-05-18T09:07:30.566Z,81.30
2023-05-18T09:09:59.238Z,81.30
2023-05-18T09:12:29.795Z,81.20
2023-05-18T09:14:59.464Z,81.20
2023-05-18T09:17:27.912Z,81.20
2023-05-18T09:19:56.493Z,81.20
2023-05-18T09:22:25.004Z,81.20
2023-05-18T09:24:53.616Z,81.30
2023-05-18T09:27:23.293Z,81.40
2023-05-18T09:29:57.453Z,81.50
2023-05-18T09:32:27.289Z,81.60
2023-05-18T09:34:55.722Z,81.50
2023-05-18T09:37:24.128Z,81.60
2023-05-18T09:40:03.033Z,81.60
2023-05-18T09:42:37.973Z,81.60
2023-05-18T09:45:17.620Z,81.50
2023-05-18T09:47:47.353Z,81.40
2023-05-18T09:50:15.822Z,81.50
2023-05-18T09:52:44.891Z,81.70
2023-05-18T09:55:14.379Z,81.50
2023-05-18T09:57:45.885Z,81.60
2023-05-18T10:00:19.206Z,81.70
2023-05-18T10:02:49.467Z,81.60
2023-05-18T10:05:21.364Z,81.70
2023-05-18T10:07:50.121Z,81.70
2023-05-18T10:10:23.671Z,81.70
2023-05-18T10:12:52.887Z,81.70
2023-05-18T10:15:24.160Z,81.60
2023-05-18T10:17:56.793Z,81.70
2023-05-18T10:20:27.027Z,81.70
2023-05-18T10:22:57.336Z,81.70
2023-05-18T10:25:28.198Z,81.80
2023-05-18T10:28:01.207Z,81.70
2023-05-18T10:30:32.441Z,81.80
2023-05-18T10:33:01.622Z,81.70
2023-05-18T10:35:30.425Z,81.60
2023-05-18T10:38:00.507Z,81.70
2023-05-18T10:40:30.122Z,81.70
2023-05-18T10:42:59.465Z,81.60
2023-05-18T10:45:28.416Z,81.60
2023-05-18T10:48:00.326Z,81.60
2023-05-18T10:50:30.344Z,81.60
2023-05-18T10:53:00.791Z,81.90
2023-05-18T10:55:30.944Z,81.70
2023-05-18T10:58:04.794Z,81.80
2023-05-18T11:00:36.260Z,81.70
2023-05-18T11:03:10.304Z,81.70
2023-05-18T11:05:39.862Z,81.80
2023-05-18T11:08:08.393Z,81.70
2023-05-18T11:10:41.037Z,81.70
2023-05-18T11:13:11.340Z,81.80
2023-05-18T11:16:05.197Z,81.70
2023-05-18T11:18:42.092Z,81.80
2023-05-18T11:21:41.422Z,81.80
2023-05-18T11:24:19.802Z,81.80
2023-05-18T11:26:49.295Z,81.90
2023-05-18T11:29:19.463Z,81.70
2023-05-18T11:31:48.694Z,81.70
2023-05-18T11:34:44.796Z,81.80
2023-05-18T11:37:14.877Z,81.70
2023-05-18T11:39:55.448Z,81.60
2023-05-18T11:42:34.680Z,81.70
2023-05-18T11:45:08.807Z,81.70
2023-05-18T11:47:39.945Z,81.80
2023-05-18T11:50:11.937Z,81.80
2023-05-18T11:52:52.626Z,81.80
2023-05-18T11:55:22.127Z,81.80
2023-05-18T11:57:53.482Z,81.80
2023-05-18T12:00:22.777Z,82.60
2023-05-18T12:02:52.678Z,81.80
2023-05-18T12:05:23.060Z,81.80
2023-05-18T12:07:54.796Z,82.60
2023-05-18T12:10:24.024Z,81.80
2023-05-18T12:12:53.628Z,81.80
2023-05-18T12:15:28.751Z,81.80
2023-05-18T12:18:00.111Z,81.80
2023-05-18T12:20:31.167Z,81.80
2023-05-18T12:22:59.838Z,81.80
2023-05-18T12:25:28.981Z,81.80
2023-05-18T12:27:57.840Z,82.00
2023-05-18T12:30:34.784Z,81.90
2023-05-18T12:33:04.119Z,81.90
2023-05-18T12:35:34.383Z,81.90
2023-05-18T12:38:03.240Z,81.80
2023-05-18T12:40:44.487Z,81.80
2023-05-18T12:43:13.320Z,81.90
2023-05-18T12:45:41.810Z,81.80
2023-05-18T12:48:12.121Z,81.80
2023-05-18T12:50:49.515Z,81.80
2023-05-18T12:53:18.474Z,81.80
2023-05-18T12:55:58.804Z,81.80
2023-05-18T12:58:28.320Z,81.80
2023-05-18T13:00:56.613Z,81.80
2023-05-18T13:03:25.167Z,81.80
2023-05-18T13:06:06.328Z,81.80
2023-05-18T13:08:35.952Z,82.00
2023-05-18T13:11:12.583Z,82.00
2023-05-18T13:13:58.981Z,82.00
2023-05-18T13:16:29.501Z,82.80
2023-05-18T13:18:59.071Z,82.00
2023-05-18T13:21:29.539Z,82.90
2023-05-18T13:23:58.018Z,82.10
2023-05-18T13:26:26.546Z,82.00
2023-05-18T13:28:57.381Z,82.10
2023-05-18T13:31:26.197Z,82.00
2023-05-18T13:33:54.550Z,82.10
2023-05-18T13:36:22.970Z,82.10
2023-05-18T13:38:52.850Z,82.10
2023-05-18T13:41:21.327Z,82.20
2023-05-18T13:43:49.711Z,82.20
2023-05-18T13:46:18.645Z,82.20
2023-05-18T13:48:47.176Z,82.20
2023-05-18T13:51:16.268Z,82.20
2023-05-18T13:53:44.589Z,82.20
2023-05-18T13:56:14.291Z,82.30
2023-05-18T13:58:43.658Z,82.20
2023-05-18T14:01:13.813Z,82.20
2023-05-18T14:03:42.678Z,82.30
2023-05-18T14:06:11.247Z,82.40
2023-05-18T14:08:39.566Z,82.40
2023-05-18T14:11:07.863Z,82.40
2023-05-18T14:13:37.565Z,82.40
2023-05-18T14:16:06.473Z,82.40
2023-05-18T14:18:34.919Z,82.50
2023-05-18T14:21:03.693Z,82.40
2023-05-18T14:23:32.345Z,82.40
2023-05-18T14:26:00.747Z,82.40
2023-05-18T14:28:30.287Z,82.50
2023-05-18T14:31:00.759Z,82.50
2023-05-18T14:33:29.144Z,82.50
2023-05-18T14:35:58.322Z,82.50
2023-05-18T14:38:27.126Z,83.40
2023-05-18T14:40:55.522Z,82.60
2023-05-18T14:43:25.154Z,82.60
2023-05-18T14:46:07.214Z,82.70
2023-05-18T14:48:38.689Z,82.70
2023-05-18T14:51:06.992Z,83.10
2023-05-18T14:53:35.384Z,82.80
2023-05-18T14:56:06.226Z,82.70
2023-05-18T14:58:34.770Z,82.70
2023-05-18T15:01:03.287Z,82.70
2023-05-18T15:03:31.770Z,82.80
2023-05-18T15:06:01.643Z,82.80
2023-05-18T15:08:30.052Z,82.80
2023-05-18T15:10:58.683Z,82.80
2023-05-18T15:13:26.955Z,82.80
2023-05-18T15:15:55.401Z,83.70
2023-05-18T15:18:23.796Z,82.90
2023-05-18T15:20:52.447Z,82.90
2023-05-18T15:23:22.246Z,83.70
2023-05-18T15:25:52.443Z,82.80
2023-05-18T15:28:20.798Z,82.80
2023-05-18T15:30:49.376Z,82.90
2023-05-18T15:33:17.703Z,82.90
2023-05-18T15:35:46.054Z,83.00
2023-05-18T15:38:14.424Z,82.90
2023-05-18T15:40:46.814Z,83.00
2023-05-18T15:43:15.199Z,83.00
2023-05-18T15:45:43.753Z,83.10
2023-05-18T15:48:12.194Z,83.10
2023-05-18T15:50:40.585Z,83.10
2023-05-18T15:53:09.857Z,83.10
2023-05-18T15:55:38.381Z,83.00
2023-05-18T15:58:08.111Z,83.00
2023-05-18T16:00:36.557Z,83.10
2023-05-18T16:03:04.988Z,83.10
2023-05-18T16:05:33.394Z,83.10
2023-05-18T16:08:01.891Z,83.10
2023-05-18T16:10:30.721Z,83.10
2023-05-18T16:13:05.525Z,83.10
2023-05-18T16:15:38.552Z,83.90
2023-05-18T16:18:07.484Z,83.10
2023-05-18T16:20:36.022Z,83.10
2023-05-18T16:23:04.361Z,83.10
2023-05-18T16:25:32.859Z,83.10
2023-05-18T16:28:01.274Z,83.10
2023-05-18T16:30:29.714Z,83.10
2023-05-18T16:32:59.997Z,83.20
2023-05-18T16:35:30.965Z,83.10
2023-05-18T16:37:59.969Z,83.10
2023-05-18T16:40:28.273Z,83.10
2023-05-18T16:42:56.715Z,83.10
2023-05-18T16:45:27.015Z,83.10
2023-05-18T16:47:55.608Z,83.00
2023-05-18T16:50:27.781Z,83.10
2023-05-18T16:52:56.116Z,83.00
2023-05-18T16:55:24.736Z,83.10
2023-05-18T16:57:53.233Z,83.00
2023-05-18T17:00:22.138Z,83.00
2023-05-18T17:02:50.396Z,83.10
2023-05-18T17:05:21.565Z,83.00
2023-05-18T17:07:52.234Z,83.10
2023-05-18T17:10:20.693Z,83.10
2023-05-18T17:12:49.075Z,83.90
2023-05-18T17:15:17.327Z,83.00
2023-05-18T17:17:45.668Z,83.10
2023-05-18T17:20:14.098Z,83.10
2023-05-18T17:22:42.411Z,83.10
2023-05-18T17:25:12.386Z,83.10
2023-05-18T17:27:40.808Z,83.10
2023-05-18T17:30:10.355Z,83.00
2023-05-18T17:32:38.991Z,83.10
2023-05-18T17:35:11.221Z,83.10
2023-05-18T17:37:41.376Z,83.20
2023-05-18T17:40:12.321Z,83.20
2023-05-18T17:42:40.660Z,83.10
2023-05-18T17:45:10.080Z,83.20
2023-05-18T17:47:39.317Z,83.20
2023-05-18T17:50:08.853Z,83.20
2023-05-18T17:52:37.259Z,83.20
2023-05-18T17:55:06.199Z,83.20
2023-05-18T17:57:35.892Z,83.20
2023-05-18T18:00:06.197Z,83.20
2023-05-18T18:02:39.924Z,83.20
2023-05-18T18:05:08.959Z,83.20
2023-05-18T18:07:37.462Z,83.10
2023-05-18T18:10:06.782Z,83.20
2023-05-18T18:12:39.113Z,83.20
2023-05-18T18:15:08.626Z,83.10
2023-05-18T18:17:37.092Z,83.20
2023-05-18T18:20:09.039Z,83.20
2023-05-18T18:22:37.411Z,83.20
2023-05-18T18:25:06.444Z,83.20
2023-05-18T18:27:36.251Z,83.30
2023-05-18T18:30:04.900Z,83.20
2023-05-18T18:32:33.524Z,83.20
2023-05-18T18:35:01.873Z,83.20
2023-05-18T18:37:32.338Z,83.30
2023-05-18T18:40:03.431Z,83.30
2023-05-18T18:42:31.973Z,83.30
2023-05-18T18:45:03.902Z,83.30
2023-05-18T18:47:32.724Z,83.20
2023-05-18T18:50:01.146Z,83.30
2023-05-18T18:52:31.828Z,83.30
2023-05-18T18:55:00.158Z,83.30
2023-05-18T18:57:28.465Z,83.40
2023-05-18T18:59:58.815Z,83.30
2023-05-18T19:02:28.660Z,83.30
2023-05-18T19:04:57.475Z,83.40
2023-05-18T19:07:25.917Z,83.40
2023-05-18T19:09:54.226Z,83.40
2023-05-18T19:12:22.565Z,83.40
2023-05-18T19:14:50.960Z,83.40
2023-05-18T19:17:19.469Z,83.30
2023-05-18T19:19:49.207Z,83.40
2023-05-18T19:22:17.546Z,83.40
2023-05-18T19:24:45.964Z,83.40
2023-05-18T19:27:14.631Z,83.40
2023-05-18T19:29:42.973Z,83.40
2023-05-18T19:32:11.501Z,83.50
2023-05-18T19:34:40.118Z,83.50
2023-05-18T19:37:12.113Z,83.50
2023-05-18T19:39:40.439Z,83.50
2023-05-18T19:42:08.854Z,83.40
2023-05-18T19:44:37.229Z,83.40
2023-05-18T19:47:06.935Z,83.40
2023-05-18T19:49:35.512Z,83.40
2023-05-18T19:52:08.031Z,83.40
2023-05-18T19:54:38.227Z,83.50
2023-05-18T19:57:06.788Z,83.50
2023-05-18T19:59:35.263Z,83.40
2023-05-18T20:02:05.250Z,83.50
2023-05-18T20:04:34.617Z,83.40
2023-05-18T20:07:02.989Z,83.40
2023-05-18T20:09:31.410Z,84.30
2023-05-18T20:12:02.846Z,83.40
2023-05-18T20:14:33.367Z,83.40
2023-05-18T20:17:01.896Z,83.40
2023-05-18T20:19:30.601Z,84.10
2023-05-18T20:21:59.056Z,83.50
2023-05-18T20:24:27.522Z,83.50
2023-05-18T20:26:55.975Z,83.50
2023-05-18T20:29:25.728Z,83.50
2023-05-18T20:31:54.846Z,83.40
2023-05-18T20:34:23.403Z,83.50
2023-05-18T20:36:51.877Z,83.50
2023-05-18T20:39:20.238Z,83.40
2023-05-18T20:41:50.447Z,83.50
2023-05-18T20:44:22.865Z,83.50
2023-05-18T20:46:53.144Z,83.50
2023-05-18T20:49:22.399Z,83.50
2023-05-18T20:51:53.439Z,83.40
2023-05-18T20:54:22.816Z,83.40
2023-05-18T20:56:52.058Z,83.40
2023-05-18T20:59:20.324Z,83.40
2023-05-18T21:01:51.065Z,83.50
2023-05-18T21:04:21.020Z,83.50
2023-05-18T21:06:49.463Z,83.50
2023-05-18T21:09:18.114Z,83.50
2023-05-18T21:11:46.523Z,83.50
2023-05-18T21:14:14.889Z,83.40
2023-05-18T21:16:43.249Z,83.50
2023-05-18T21:19:11.709Z,83.50
2023-05-18T21:21:41.491Z,83.60
2023-05-18T21:24:09.857Z,83.50
2023-05-18T21:26:38.418Z,83.60
2023-05-18T21:29:07.278Z,83.60
2023-05-18T21:31:35.709Z,83.40
2023-05-18T21:34:04.160Z,83.50
2023-05-18T21:36:34.171Z,83.50
2023-05-18T21:39:08.066Z,83.50
2023-05-18T21:41:39.267Z,83.40
2023-05-18T21:44:07.858Z,83.60
2023-05-18T21:46:37.606Z,83.50
2023-05-18T21:49:07.549Z,83.40
2023-05-18T21:51:36.539Z,83.60
2023-05-18T21:54:06.433Z,83.40
2023-05-18T21:56:36.776Z,83.60
2023-05-18T21:59:05.113Z,83.70
2023-05-18T22:01:33.450Z,83.60
2023-05-18T22:04:01.823Z,83.50
2023-05-18T22:06:30.252Z,83.50
2023-05-18T22:08:58.501Z,83.50
2023-05-18T22:11:28.218Z,84.40
2023-05-18T22:13:56.521Z,83.50
2023-05-18T22:16:24.878Z,83.50
2023-05-18T22:18:53.353Z,83.50
2023-05-18T22:21:21.717Z,83.60
2023-05-18T22:23:51.649Z,83.50
2023-05-18T22:26:20.266Z,83.50
2023-05-18T22:28:49.936Z,83.60
2023-05-18T22:31:18.368Z,83.50
2023-05-18T22:33:46.709Z,83.60
2023-05-18T22:36:15.115Z,83.50
2023-05-18T22:38:43.963Z,83.50
2023-05-18T22:41:12.262Z,83.50
2023-05-18T22:43:40.900Z,83.50
2023-05-18T22:46:10.746Z,83.60
2023-05-18T22:48:40.233Z,83.50
2023-05-18T22:51:08.658Z,83.50
2023-05-18T22:53:36.995Z,83.50
2023-05-18T22:56:07.403Z,83.50
2023-05-18T22:58:35.750Z,83.60
2023-05-18T23:01:04.258Z,83.60
2023-05-18T23:03:34.029Z,83.60
2023-05-18T23:06:03.228Z,83.60
2023-05-18T23:08:32.097Z,83.60
2023-05-18T23:11:01.787Z,83.50
2023-05-18T23:13:32.935Z,84.40
2023-05-18T23:16:02.429Z,83.60
2023-05-18T23:18:30.760Z,83.60
2023-05-18T23:21:01.232Z,84.40
2023-05-18T23:23:29.605Z,83.60
2023-05-18T23:25:58.661Z,83.60
2023-05-18T23:28:26.972Z,83.60
2023-05-18T23:30:56.066Z,83.60
2023-05-18T23:33:25.692Z,83.60
2023-05-18T23:35:55.497Z,83.60
2023-05-18T23:38:29.550Z,84.50
2023-05-18T23:40:58.339Z,83.60
2023-05-18T23:43:27.132Z,83.60
2023-05-18T23:45:56.273Z,83.60
2023-05-18T23:48:25.313Z,83.60
2023-05-18T23:50:54.443Z,83.60
2023-05-18T23:53:25.615Z,83.60
2023-05-18T23:55:54.253Z,83.70
2023-05-18T23:58:24.706Z,83.70
